Pagrindinis puslapis
METAR-TAF:

METAR-TAF

Oro uostai :

Menchengladbachas, Vokietija

platuma: 51-13-49N, ilguma: 006-30-16E, Aukštis: 38 m

Dabartinis oras

Ataskaita buvo paskelbta 39 minutes, ne 00:20 UTC
Vėjas 9 kt iš Šiaurės/Šiaurės Vakarų
Temperatūra 4°C
Drėgmė 70%
Slėgis 1026 hPa
Matomumas 10 km arba daugiau

METAR: EDLN 290020Z AUTO 34009KT 9999 // NCD 04/M01 Q1026

Laikas: 01:59 (00:59 UTC)

Prognozė

Ataskaita buvo paskelbta 7 valandos ir 59 minutes, ne 17:00 UTC
Prognozė galioja nuo 28 metu 18 UTC su 29 metu 03 UTC
Vėjas 13 kt iš Šiaurės
Matomumas 10 km arba daugiau
Mažai debesys ne aukštis 4000 ft
Tapsmas
nuo 28 metu 18 UTC su 28 metu 21 UTC
Vėjas 8 kt iš Šiaurės/Šiaurės Vakarų

TAF: EDLN 281700Z 2818/2903 36013KT 9999 FEW040 BECMG 2818/2821 34008KT

Orai ataskaitas ir orų prognozės (METAR, TAF).

turimą stotys yra geltonos ir raudonos taškus žemėlapyje.

Perkelti pele per norėdami pamatyti stoties vardą.

Tada spustelėkite, norėdami matyti oro stebėjimo ir prognozės.

Norėdami pakeisti žemėlapį: spustelėkite ant žalios mygtukų su juodo kryžiaus žemyn,; žalią mygtuką su brūkšneliu, jei norite nutolinti; arba žalių rodyklių gretimoms žemėlapius.


METAR-TAF: